sensor_id;sensor_type;location;lat;lon;timestamp;P1;durP1;ratioP1;P2;durP2;ratioP2
60488;SDS011;46331;49.252;8.904;2023-08-06T00:00:11;4.45;;;1.70;;
60488;SDS011;46331;49.252;8.904;2023-08-06T00:00:52;4.70;;;1.50;;
60488;SDS011;46331;49.252;8.904;2023-08-06T00:01:32;5.55;;;1.60;;
60488;SDS011;46331;49.252;8.904;2023-08-06T00:02:13;3.80;;;1.50;;
60488;SDS011;46331;49.252;8.904;2023-08-06T00:02:53;5.13;;;1.65;;
60488;SDS011;46331;49.252;8.904;2023-08-06T00:03:34;4.27;;;1.83;;
60488;SDS011;46331;49.252;8.904;2023-08-06T00:04:14;4.77;;;1.47;;
60488;SDS011;46331;49.252;8.904;2023-08-06T00:04:55;4.00;;;1.67;;
60488;SDS011;46331;49.252;8.904;2023-08-06T00:05:36;4.20;;;1.60;;
60488;SDS011;46331;49.252;8.904;2023-08-06T00:06:16;4.95;;;1.70;;
60488;SDS011;46331;49.252;8.904;2023-08-06T00:06:57;4.37;;;1.60;;
60488;SDS011;46331;49.252;8.904;2023-08-06T00:07:37;6.43;;;1.43;;
60488;SDS011;46331;49.252;8.904;2023-08-06T00:08:18;5.90;;;2.03;;
60488;SDS011;46331;49.252;8.904;2023-08-06T00:08:58;4.23;;;1.63;;
60488;SDS011;46331;49.252;8.904;2023-08-06T00:09:38;5.57;;;1.80;;
60488;SDS011;46331;49.252;8.904;2023-08-06T00:10:19;4.47;;;1.83;;
60488;SDS011;46331;49.252;8.904;2023-08-06T00:10:59;4.45;;;1.73;;
60488;SDS011;46331;49.252;8.904;2023-08-06T00:11:40;4.63;;;1.70;;
60488;SDS011;46331;49.252;8.904;2023-08-06T00:12:21;5.88;;;1.90;;
60488;SDS011;46331;49.252;8.904;2023-08-06T00:13:02;5.47;;;1.97;;
60488;SDS011;46331;49.252;8.904;2023-08-06T00:13:42;4.50;;;1.70;;
60488;SDS011;46331;49.252;8.904;2023-08-06T00:14:23;4.20;;;1.70;;
60488;SDS011;46331;49.252;8.904;2023-08-06T00:15:03;4.80;;;1.70;;
60488;SDS011;46331;49.252;8.904;2023-08-06T00:15:44;7.10;;;2.00;;
60488;SDS011;46331;49.252;8.904;2023-08-06T00:16:24;4.35;;;1.80;;
60488;SDS011;46331;49.252;8.904;2023-08-06T00:17:05;6.80;;;1.60;;
60488;SDS011;46331;49.252;8.904;2023-08-06T00:17:45;3.87;;;1.60;;
60488;SDS011;46331;49.252;8.904;2023-08-06T00:18:26;4.70;;;1.80;;
60488;SDS011;46331;49.252;8.904;2023-08-06T00:19:06;6.60;;;1.90;;
60488;SDS011;46331;49.252;8.904;2023-08-06T00:19:47;4.88;;;1.95;;
60488;SDS011;46331;49.252;8.904;2023-08-06T00:20:27;5.87;;;2.00;;
60488;SDS011;46331;49.252;8.904;2023-08-06T00:21:08;6.67;;;1.80;;
60488;SDS011;46331;49.252;8.904;2023-08-06T00:21:48;5.07;;;1.80;;
60488;SDS011;46331;49.252;8.904;2023-08-06T00:22:29;5.83;;;2.20;;
60488;SDS011;46331;49.252;8.904;2023-08-06T00:23:09;5.90;;;2.08;;
60488;SDS011;46331;49.252;8.904;2023-08-06T00:23:50;4.93;;;1.90;;
60488;SDS011;46331;49.252;8.904;2023-08-06T00:24:32;5.10;;;1.95;;
60488;SDS011;46331;49.252;8.904;2023-08-06T00:25:14;5.95;;;2.05;;
60488;SDS011;46331;49.252;8.904;2023-08-06T00:25:54;4.77;;;1.80;;
60488;SDS011;46331;49.252;8.904;2023-08-06T00:26:35;5.03;;;2.00;;
60488;SDS011;46331;49.252;8.904;2023-08-06T00:27:15;4.97;;;1.80;;
60488;SDS011;46331;49.252;8.904;2023-08-06T00:27:56;6.68;;;1.70;;
60488;SDS011;46331;49.252;8.904;2023-08-06T00:28:36;4.40;;;1.70;;
60488;SDS011;46331;49.252;8.904;2023-08-06T00:29:17;7.55;;;2.22;;
60488;SDS011;46331;49.252;8.904;2023-08-06T00:29:57;4.40;;;1.90;;
60488;SDS011;46331;49.252;8.904;2023-08-06T00:30:38;4.85;;;1.90;;
60488;SDS011;46331;49.252;8.904;2023-08-06T00:31:19;5.03;;;1.83;;
60488;SDS011;46331;49.252;8.904;2023-08-06T00:31:59;4.68;;;1.80;;
60488;SDS011;46331;49.252;8.904;2023-08-06T00:32:40;4.53;;;1.80;;
60488;SDS011;46331;49.252;8.904;2023-08-06T00:33:21;4.20;;;1.70;;
60488;SDS011;46331;49.252;8.904;2023-08-06T00:34:02;4.07;;;1.60;;
60488;SDS011;46331;49.252;8.904;2023-08-06T00:34:42;4.15;;;1.70;;
60488;SDS011;46331;49.252;8.904;2023-08-06T00:35:23;4.03;;;1.83;;
60488;SDS011;46331;49.252;8.904;2023-08-06T00:36:03;5.68;;;1.83;;
60488;SDS011;46331;49.252;8.904;2023-08-06T00:36:44;6.17;;;1.70;;
60488;SDS011;46331;49.252;8.904;2023-08-06T00:37:24;5.63;;;1.80;;
60488;SDS011;46331;49.252;8.904;2023-08-06T00:38:05;4.35;;;1.70;;
60488;SDS011;46331;49.252;8.904;2023-08-06T00:38:45;4.27;;;1.70;;
60488;SDS011;46331;49.252;8.904;2023-08-06T00:39:26;4.30;;;1.63;;
60488;SDS011;46331;49.252;8.904;2023-08-06T00:40:06;4.80;;;1.73;;
60488;SDS011;46331;49.252;8.904;2023-08-06T00:40:48;4.50;;;1.90;;
60488;SDS011;46331;49.252;8.904;2023-08-06T00:41:28;3.83;;;1.43;;
60488;SDS011;46331;49.252;8.904;2023-08-06T00:42:09;4.23;;;1.90;;
60488;SDS011;46331;49.252;8.904;2023-08-06T00:42:50;4.30;;;1.90;;
60488;SDS011;46331;49.252;8.904;2023-08-06T00:43:31;4.03;;;1.63;;
60488;SDS011;46331;49.252;8.904;2023-08-06T00:44:11;5.17;;;1.80;;
60488;SDS011;46331;49.252;8.904;2023-08-06T00:44:53;4.50;;;1.80;;
60488;SDS011;46331;49.252;8.904;2023-08-06T00:45:35;5.20;;;2.07;;
60488;SDS011;46331;49.252;8.904;2023-08-06T00:46:16;4.67;;;2.10;;
60488;SDS011;46331;49.252;8.904;2023-08-06T00:46:57;5.22;;;2.15;;
60488;SDS011;46331;49.252;8.904;2023-08-06T00:47:37;7.27;;;1.70;;
60488;SDS011;46331;49.252;8.904;2023-08-06T00:48:19;6.38;;;1.92;;
60488;SDS011;46331;49.252;8.904;2023-08-06T00:49:00;5.00;;;1.90;;
60488;SDS011;46331;49.252;8.904;2023-08-06T00:49:41;5.90;;;1.75;;
60488;SDS011;46331;49.252;8.904;2023-08-06T00:50:22;4.95;;;1.88;;
60488;SDS011;46331;49.252;8.904;2023-08-06T00:51:03;4.32;;;1.45;;
60488;SDS011;46331;49.252;8.904;2023-08-06T00:51:44;4.40;;;1.70;;
60488;SDS011;46331;49.252;8.904;2023-08-06T00:52:24;5.65;;;1.90;;
60488;SDS011;46331;49.252;8.904;2023-08-06T00:53:05;3.60;;;1.40;;
60488;SDS011;46331;49.252;8.904;2023-08-06T00:53:46;3.75;;;1.50;;
60488;SDS011;46331;49.252;8.904;2023-08-06T00:54:27;4.97;;;1.80;;
60488;SDS011;46331;49.252;8.904;2023-08-06T00:55:08;4.67;;;1.70;;
60488;SDS011;46331;49.252;8.904;2023-08-06T00:55:48;4.10;;;1.60;;
60488;SDS011;46331;49.252;8.904;2023-08-06T00:56:30;5.22;;;1.90;;
60488;SDS011;46331;49.252;8.904;2023-08-06T00:57:10;5.43;;;1.75;;
60488;SDS011;46331;49.252;8.904;2023-08-06T00:57:51;6.72;;;1.80;;
60488;SDS011;46331;49.252;8.904;2023-08-06T00:58:33;7.45;;;1.70;;
60488;SDS011;46331;49.252;8.904;2023-08-06T00:59:15;4.07;;;1.70;;
60488;SDS011;46331;49.252;8.904;2023-08-06T00:59:55;5.05;;;1.92;;
60488;SDS011;46331;49.252;8.904;2023-08-06T01:00:36;3.92;;;1.60;;
60488;SDS011;46331;49.252;8.904;2023-08-06T01:01:17;3.97;;;1.60;;
60488;SDS011;46331;49.252;8.904;2023-08-06T01:01:57;5.47;;;2.20;;
60488;SDS011;46331;49.252;8.904;2023-08-06T01:02:38;4.30;;;1.70;;
60488;SDS011;46331;49.252;8.904;2023-08-06T01:03:18;5.90;;;1.70;;
60488;SDS011;46331;49.252;8.904;2023-08-06T01:03:59;4.50;;;1.87;;
60488;SDS011;46331;49.252;8.904;2023-08-06T01:04:40;5.68;;;1.80;;
60488;SDS011;46331;49.252;8.904;2023-08-06T01:05:21;4.23;;;1.50;;
60488;SDS011;46331;49.252;8.904;2023-08-06T01:06:03;4.85;;;1.70;;
60488;SDS011;46331;49.252;8.904;2023-08-06T01:06:47;4.60;;;1.80;;
60488;SDS011;46331;49.252;8.904;2023-08-06T01:12:45;4.03;;;1.40;;
60488;SDS011;46331;49.252;8.904;2023-08-06T01:14:02;6.23;;;1.80;;
60488;SDS011;46331;49.252;8.904;2023-08-06T01:14:53;4.55;;;1.70;;
60488;SDS011;46331;49.252;8.904;2023-08-06T01:15:41;4.03;;;1.50;;
60488;SDS011;46331;49.252;8.904;2023-08-06T01:16:37;4.13;;;1.48;;
60488;SDS011;46331;49.252;8.904;2023-08-06T01:17:17;3.67;;;1.60;;
60488;SDS011;46331;49.252;8.904;2023-08-06T01:17:58;5.43;;;1.67;;
60488;SDS011;46331;49.252;8.904;2023-08-06T01:18:39;4.35;;;1.80;;
60488;SDS011;46331;49.252;8.904;2023-08-06T01:19:22;5.28;;;1.48;;
60488;SDS011;46331;49.252;8.904;2023-08-06T01:20:02;6.43;;;1.52;;
60488;SDS011;46331;49.252;8.904;2023-08-06T01:20:44;4.47;;;1.42;;
60488;SDS011;46331;49.252;8.904;2023-08-06T01:21:24;5.07;;;1.50;;
60488;SDS011;46331;49.252;8.904;2023-08-06T01:22:05;6.63;;;1.57;;
60488;SDS011;46331;49.252;8.904;2023-08-06T01:22:47;4.30;;;1.70;;
60488;SDS011;46331;49.252;8.904;2023-08-06T01:23:27;5.43;;;1.48;;
60488;SDS011;46331;49.252;8.904;2023-08-06T01:24:08;4.87;;;1.60;;
60488;SDS011;46331;49.252;8.904;2023-08-06T01:24:49;4.07;;;1.50;;
60488;SDS011;46331;49.252;8.904;2023-08-06T01:25:35;4.55;;;1.48;;
60488;SDS011;46331;49.252;8.904;2023-08-06T01:26:28;3.92;;;1.60;;
60488;SDS011;46331;49.252;8.904;2023-08-06T01:27:55;5.03;;;2.00;;
60488;SDS011;46331;49.252;8.904;2023-08-06T01:28:26;4.28;;;1.60;;
60488;SDS011;46331;49.252;8.904;2023-08-06T01:29:23;3.90;;;1.60;;
60488;SDS011;46331;49.252;8.904;2023-08-06T01:30:41;4.00;;;1.40;;
60488;SDS011;46331;49.252;8.904;2023-08-06T01:31:24;5.72;;;1.77;;
60488;SDS011;46331;49.252;8.904;2023-08-06T01:32:11;3.95;;;1.50;;
60488;SDS011;46331;49.252;8.904;2023-08-06T01:32:56;5.15;;;1.55;;
60488;SDS011;46331;49.252;8.904;2023-08-06T01:33:42;4.13;;;1.45;;
60488;SDS011;46331;49.252;8.904;2023-08-06T01:34:25;5.05;;;2.03;;
60488;SDS011;46331;49.252;8.904;2023-08-06T01:35:09;5.43;;;1.60;;
60488;SDS011;46331;49.252;8.904;2023-08-06T01:35:51;5.10;;;1.55;;
60488;SDS011;46331;49.252;8.904;2023-08-06T01:36:34;4.88;;;1.60;;
60488;SDS011;46331;49.252;8.904;2023-08-06T01:37:16;5.05;;;1.85;;
60488;SDS011;46331;49.252;8.904;2023-08-06T01:37:57;4.00;;;1.40;;
60488;SDS011;46331;49.252;8.904;2023-08-06T01:38:37;4.50;;;1.70;;
60488;SDS011;46331;49.252;8.904;2023-08-06T01:39:18;5.27;;;2.33;;
60488;SDS011;46331;49.252;8.904;2023-08-06T01:40:01;5.38;;;1.90;;
60488;SDS011;46331;49.252;8.904;2023-08-06T01:40:41;4.38;;;1.75;;
60488;SDS011;46331;49.252;8.904;2023-08-06T01:41:22;6.27;;;1.90;;
60488;SDS011;46331;49.252;8.904;2023-08-06T01:42:03;4.93;;;1.40;;
60488;SDS011;46331;49.252;8.904;2023-08-06T01:42:44;4.25;;;1.60;;
60488;SDS011;46331;49.252;8.904;2023-08-06T01:43:24;6.10;;;1.60;;
60488;SDS011;46331;49.252;8.904;2023-08-06T01:44:05;4.67;;;1.37;;
60488;SDS011;46331;49.252;8.904;2023-08-06T01:44:46;7.32;;;1.90;;
60488;SDS011;46331;49.252;8.904;2023-08-06T01:45:26;4.90;;;1.70;;
60488;SDS011;46331;49.252;8.904;2023-08-06T01:46:07;4.77;;;1.50;;
60488;SDS011;46331;49.252;8.904;2023-08-06T01:46:47;4.67;;;1.77;;
60488;SDS011;46331;49.252;8.904;2023-08-06T01:47:28;4.97;;;1.87;;
60488;SDS011;46331;49.252;8.904;2023-08-06T01:48:08;5.07;;;1.70;;
60488;SDS011;46331;49.252;8.904;2023-08-06T01:48:49;4.63;;;1.58;;
60488;SDS011;46331;49.252;8.904;2023-08-06T01:49:29;4.10;;;1.87;;
60488;SDS011;46331;49.252;8.904;2023-08-06T01:50:10;4.80;;;1.60;;
60488;SDS011;46331;49.252;8.904;2023-08-06T01:50:50;3.90;;;1.40;;
60488;SDS011;46331;49.252;8.904;2023-08-06T01:51:32;4.93;;;1.60;;
60488;SDS011;46331;49.252;8.904;2023-08-06T01:52:13;8.25;;;1.80;;
60488;SDS011;46331;49.252;8.904;2023-08-06T01:52:53;5.30;;;1.90;;
60488;SDS011;46331;49.252;8.904;2023-08-06T01:53:34;4.68;;;1.88;;
60488;SDS011;46331;49.252;8.904;2023-08-06T01:54:14;5.33;;;1.67;;
60488;SDS011;46331;49.252;8.904;2023-08-06T01:54:55;6.68;;;1.80;;
60488;SDS011;46331;49.252;8.904;2023-08-06T01:55:36;5.30;;;1.83;;
60488;SDS011;46331;49.252;8.904;2023-08-06T01:56:16;5.30;;;1.80;;
60488;SDS011;46331;49.252;8.904;2023-08-06T01:56:57;4.10;;;1.60;;
60488;SDS011;46331;49.252;8.904;2023-08-06T01:57:38;5.75;;;2.00;;
60488;SDS011;46331;49.252;8.904;2023-08-06T01:58:19;4.50;;;1.60;;
60488;SDS011;46331;49.252;8.904;2023-08-06T01:58:59;4.67;;;1.80;;
60488;SDS011;46331;49.252;8.904;2023-08-06T01:59:40;6.93;;;1.47;;
60488;SDS011;46331;49.252;8.904;2023-08-06T02:00:21;4.85;;;1.90;;
60488;SDS011;46331;49.252;8.904;2023-08-06T02:01:01;4.28;;;1.67;;
60488;SDS011;46331;49.252;8.904;2023-08-06T02:01:42;4.73;;;1.87;;
60488;SDS011;46331;49.252;8.904;2023-08-06T02:02:23;4.70;;;1.90;;
60488;SDS011;46331;49.252;8.904;2023-08-06T02:03:03;4.47;;;1.60;;
60488;SDS011;46331;49.252;8.904;2023-08-06T02:03:43;6.27;;;1.70;;
60488;SDS011;46331;49.252;8.904;2023-08-06T02:04:24;5.77;;;1.57;;
60488;SDS011;46331;49.252;8.904;2023-08-06T02:05:05;4.60;;;1.50;;
60488;SDS011;46331;49.252;8.904;2023-08-06T02:05:46;5.03;;;1.70;;
60488;SDS011;46331;49.252;8.904;2023-08-06T02:06:26;7.40;;;1.60;;
60488;SDS011;46331;49.252;8.904;2023-08-06T02:07:07;4.20;;;1.60;;
60488;SDS011;46331;49.252;8.904;2023-08-06T02:07:47;4.28;;;1.40;;
60488;SDS011;46331;49.252;8.904;2023-08-06T02:08:28;3.90;;;1.43;;
60488;SDS011;46331;49.252;8.904;2023-08-06T02:09:08;3.80;;;1.50;;
60488;SDS011;46331;49.252;8.904;2023-08-06T02:09:50;4.57;;;1.50;;
60488;SDS011;46331;49.252;8.904;2023-08-06T02:10:30;5.60;;;1.60;;
60488;SDS011;46331;49.252;8.904;2023-08-06T02:11:11;4.50;;;1.37;;
60488;SDS011;46331;49.252;8.904;2023-08-06T02:11:51;9.45;;;1.77;;
60488;SDS011;46331;49.252;8.904;2023-08-06T02:12:32;4.47;;;1.70;;
60488;SDS011;46331;49.252;8.904;2023-08-06T02:13:12;3.40;;;1.30;;
60488;SDS011;46331;49.252;8.904;2023-08-06T02:13:53;3.60;;;1.40;;
60488;SDS011;46331;49.252;8.904;2023-08-06T02:14:33;4.20;;;1.47;;
60488;SDS011;46331;49.252;8.904;2023-08-06T02:15:14;3.67;;;1.20;;
60488;SDS011;46331;49.252;8.904;2023-08-06T02:15:55;5.88;;;1.77;;
60488;SDS011;46331;49.252;8.904;2023-08-06T02:16:35;5.63;;;1.47;;
60488;SDS011;46331;49.252;8.904;2023-08-06T02:17:16;3.75;;;1.40;;
60488;SDS011;46331;49.252;8.904;2023-08-06T02:17:57;3.43;;;1.20;;
60488;SDS011;46331;49.252;8.904;2023-08-06T02:18:37;5.10;;;1.50;;
60488;SDS011;46331;49.252;8.904;2023-08-06T02:19:18;5.67;;;1.57;;
60488;SDS011;46331;49.252;8.904;2023-08-06T02:19:58;3.88;;;1.40;;
60488;SDS011;46331;49.252;8.904;2023-08-06T02:20:39;3.90;;;1.40;;
60488;SDS011;46331;49.252;8.904;2023-08-06T02:21:19;3.70;;;1.40;;
60488;SDS011;46331;49.252;8.904;2023-08-06T02:21:59;8.55;;;1.90;;
60488;SDS011;46331;49.252;8.904;2023-08-06T02:22:40;5.90;;;1.80;;
60488;SDS011;46331;49.252;8.904;2023-08-06T02:23:22;4.50;;;1.83;;
60488;SDS011;46331;49.252;8.904;2023-08-06T02:24:04;4.75;;;1.80;;
60488;SDS011;46331;49.252;8.904;2023-08-06T02:24:44;7.20;;;1.63;;
60488;SDS011;46331;49.252;8.904;2023-08-06T02:25:25;5.17;;;1.50;;
60488;SDS011;46331;49.252;8.904;2023-08-06T02:26:05;9.37;;;1.70;;
60488;SDS011;46331;49.252;8.904;2023-08-06T02:26:46;3.88;;;1.48;;
60488;SDS011;46331;49.252;8.904;2023-08-06T02:27:28;5.32;;;1.63;;
60488;SDS011;46331;49.252;8.904;2023-08-06T02:28:09;5.33;;;1.70;;
60488;SDS011;46331;49.252;8.904;2023-08-06T02:28:49;4.43;;;1.70;;
60488;SDS011;46331;49.252;8.904;2023-08-06T02:29:30;4.93;;;1.63;;
60488;SDS011;46331;49.252;8.904;2023-08-06T02:30:10;4.50;;;1.57;;
60488;SDS011;46331;49.252;8.904;2023-08-06T02:30:53;4.00;;;1.50;;
60488;SDS011;46331;49.252;8.904;2023-08-06T02:31:33;4.28;;;1.90;;
60488;SDS011;46331;49.252;8.904;2023-08-06T02:32:14;6.47;;;1.70;;
60488;SDS011;46331;49.252;8.904;2023-08-06T02:32:54;4.03;;;1.50;;
60488;SDS011;46331;49.252;8.904;2023-08-06T02:33:35;4.43;;;1.60;;
60488;SDS011;46331;49.252;8.904;2023-08-06T02:34:15;3.80;;;1.40;;
60488;SDS011;46331;49.252;8.904;2023-08-06T02:34:56;7.03;;;1.63;;
60488;SDS011;46331;49.252;8.904;2023-08-06T02:35:36;4.13;;;1.60;;
60488;SDS011;46331;49.252;8.904;2023-08-06T02:36:17;3.97;;;1.40;;
60488;SDS011;46331;49.252;8.904;2023-08-06T02:36:57;3.60;;;1.33;;
60488;SDS011;46331;49.252;8.904;2023-08-06T02:37:38;3.93;;;1.50;;
60488;SDS011;46331;49.252;8.904;2023-08-06T02:38:18;4.35;;;1.58;;
60488;SDS011;46331;49.252;8.904;2023-08-06T02:38:59;4.47;;;1.80;;
60488;SDS011;46331;49.252;8.904;2023-08-06T02:39:39;5.60;;;1.60;;
60488;SDS011;46331;49.252;8.904;2023-08-06T02:40:21;3.70;;;1.47;;
60488;SDS011;46331;49.252;8.904;2023-08-06T02:41:02;4.22;;;1.42;;
60488;SDS011;46331;49.252;8.904;2023-08-06T02:41:43;5.10;;;1.60;;
60488;SDS011;46331;49.252;8.904;2023-08-06T02:42:24;9.43;;;2.13;;
60488;SDS011;46331;49.252;8.904;2023-08-06T02:43:06;5.53;;;1.80;;
60488;SDS011;46331;49.252;8.904;2023-08-06T02:43:47;5.33;;;1.97;;
60488;SDS011;46331;49.252;8.904;2023-08-06T02:44:27;7.30;;;1.90;;
60488;SDS011;46331;49.252;8.904;2023-08-06T02:45:08;4.60;;;1.70;;
60488;SDS011;46331;49.252;8.904;2023-08-06T02:45:49;4.10;;;1.47;;
60488;SDS011;46331;49.252;8.904;2023-08-06T02:46:29;5.22;;;1.77;;
60488;SDS011;46331;49.252;8.904;2023-08-06T02:47:10;6.53;;;1.97;;
60488;SDS011;46331;49.252;8.904;2023-08-06T02:47:50;4.57;;;1.70;;
60488;SDS011;46331;49.252;8.904;2023-08-06T02:48:31;4.27;;;1.43;;
60488;SDS011;46331;49.252;8.904;2023-08-06T02:49:11;4.30;;;1.37;;
60488;SDS011;46331;49.252;8.904;2023-08-06T02:49:52;5.03;;;1.80;;
60488;SDS011;46331;49.252;8.904;2023-08-06T02:50:40;5.15;;;1.60;;
60488;SDS011;46331;49.252;8.904;2023-08-06T02:51:21;4.72;;;1.63;;
60488;SDS011;46331;49.252;8.904;2023-08-06T02:52:01;4.23;;;1.57;;
60488;SDS011;46331;49.252;8.904;2023-08-06T02:52:42;5.20;;;1.65;;
60488;SDS011;46331;49.252;8.904;2023-08-06T02:53:23;4.88;;;1.35;;
60488;SDS011;46331;49.252;8.904;2023-08-06T02:54:04;4.18;;;1.55;;
60488;SDS011;46331;49.252;8.904;2023-08-06T02:54:46;4.40;;;1.30;;
60488;SDS011;46331;49.252;8.904;2023-08-06T02:55:28;3.60;;;1.52;;
60488;SDS011;46331;49.252;8.904;2023-08-06T02:56:09;4.57;;;1.63;;
60488;SDS011;46331;49.252;8.904;2023-08-06T02:57:12;4.68;;;1.77;;
60488;SDS011;46331;49.252;8.904;2023-08-06T02:57:53;4.97;;;1.70;;
60488;SDS011;46331;49.252;8.904;2023-08-06T02:58:33;4.30;;;1.60;;
60488;SDS011;46331;49.252;8.904;2023-08-06T02:59:24;6.78;;;1.70;;
60488;SDS011;46331;49.252;8.904;2023-08-06T03:00:20;12.47;;;3.30;;
60488;SDS011;46331;49.252;8.904;2023-08-06T03:01:01;5.40;;;1.60;;
60488;SDS011;46331;49.252;8.904;2023-08-06T03:01:43;3.58;;;1.42;;
60488;SDS011;46331;49.252;8.904;2023-08-06T03:02:32;4.75;;;1.70;;
60488;SDS011;46331;49.252;8.904;2023-08-06T03:03:18;3.90;;;1.50;;
60488;SDS011;46331;49.252;8.904;2023-08-06T03:04:06;4.27;;;1.47;;
60488;SDS011;46331;49.252;8.904;2023-08-06T03:04:51;4.75;;;1.50;;
60488;SDS011;46331;49.252;8.904;2023-08-06T03:05:35;3.90;;;1.58;;
60488;SDS011;46331;49.252;8.904;2023-08-06T03:06:15;7.53;;;1.88;;
60488;SDS011;46331;49.252;8.904;2023-08-06T03:07:01;4.70;;;1.75;;
60488;SDS011;46331;49.252;8.904;2023-08-06T03:07:50;3.92;;;1.52;;
60488;SDS011;46331;49.252;8.904;2023-08-06T03:08:35;5.78;;;1.63;;
60488;SDS011;46331;49.252;8.904;2023-08-06T03:09:19;5.90;;;1.70;;
60488;SDS011;46331;49.252;8.904;2023-08-06T03:10:01;5.25;;;1.40;;
60488;SDS011;46331;49.252;8.904;2023-08-06T03:10:42;4.35;;;1.40;;
60488;SDS011;46331;49.252;8.904;2023-08-06T03:11:23;4.18;;;1.40;;
60488;SDS011;46331;49.252;8.904;2023-08-06T03:12:09;5.47;;;1.55;;
60488;SDS011;46331;49.252;8.904;2023-08-06T03:12:49;3.60;;;1.20;;
60488;SDS011;46331;49.252;8.904;2023-08-06T03:13:30;5.90;;;1.50;;
60488;SDS011;46331;49.252;8.904;2023-08-06T03:14:11;4.60;;;1.30;;
60488;SDS011;46331;49.252;8.904;2023-08-06T03:14:52;4.22;;;1.38;;
60488;SDS011;46331;49.252;8.904;2023-08-06T03:15:33;3.63;;;1.10;;
60488;SDS011;46331;49.252;8.904;2023-08-06T03:16:16;4.25;;;1.10;;
60488;SDS011;46331;49.252;8.904;2023-08-06T03:16:57;5.50;;;1.30;;
60488;SDS011;46331;49.252;8.904;2023-08-06T03:17:38;4.47;;;1.10;;
60488;SDS011;46331;49.252;8.904;2023-08-06T03:18:20;4.47;;;1.10;;
60488;SDS011;46331;49.252;8.904;2023-08-06T03:19:02;3.33;;;0.93;;
60488;SDS011;46331;49.252;8.904;2023-08-06T03:19:42;4.32;;;1.20;;
60488;SDS011;46331;49.252;8.904;2023-08-06T03:20:24;5.38;;;1.17;;
60488;SDS011;46331;49.252;8.904;2023-08-06T03:21:05;3.42;;;1.10;;
60488;SDS011;46331;49.252;8.904;2023-08-06T03:21:46;5.70;;;1.30;;
60488;SDS011;46331;49.252;8.904;2023-08-06T03:22:28;6.37;;;1.40;;
60488;SDS011;46331;49.252;8.904;2023-08-06T03:23:09;3.40;;;1.10;;
60488;SDS011;46331;49.252;8.904;2023-08-06T03:23:49;4.50;;;1.20;;
60488;SDS011;46331;49.252;8.904;2023-08-06T03:24:33;4.15;;;1.15;;
60488;SDS011;46331;49.252;8.904;2023-08-06T03:25:14;5.25;;;1.10;;
60488;SDS011;46331;49.252;8.904;2023-08-06T03:26:04;3.60;;;1.00;;
60488;SDS011;46331;49.252;8.904;2023-08-06T03:26:46;6.05;;;1.10;;
60488;SDS011;46331;49.252;8.904;2023-08-06T03:27:26;4.53;;;1.30;;
60488;SDS011;46331;49.252;8.904;2023-08-06T03:28:07;3.63;;;1.05;;
60488;SDS011;46331;49.252;8.904;2023-08-06T03:28:48;3.85;;;1.20;;
60488;SDS011;46331;49.252;8.904;2023-08-06T03:29:30;3.60;;;1.00;;
60488;SDS011;46331;49.252;8.904;2023-08-06T03:30:13;5.50;;;1.27;;
60488;SDS011;46331;49.252;8.904;2023-08-06T03:31:00;4.80;;;1.20;;
60488;SDS011;46331;49.252;8.904;2023-08-06T03:31:42;6.00;;;1.10;;
60488;SDS011;46331;49.252;8.904;2023-08-06T03:32:25;6.28;;;1.20;;
60488;SDS011;46331;49.252;8.904;2023-08-06T03:33:07;5.38;;;1.25;;
60488;SDS011;46331;49.252;8.904;2023-08-06T03:33:47;5.10;;;1.10;;
60488;SDS011;46331;49.252;8.904;2023-08-06T03:34:30;5.25;;;1.20;;
60488;SDS011;46331;49.252;8.904;2023-08-06T03:35:11;6.57;;;1.43;;
60488;SDS011;46331;49.252;8.904;2023-08-06T03:35:51;4.33;;;1.30;;
60488;SDS011;46331;49.252;8.904;2023-08-06T03:36:33;3.88;;;1.10;;
60488;SDS011;46331;49.252;8.904;2023-08-06T03:37:14;13.20;;;1.60;;
60488;SDS011;46331;49.252;8.904;2023-08-06T03:37:55;5.22;;;1.20;;
60488;SDS011;46331;49.252;8.904;2023-08-06T03:38:35;5.03;;;1.20;;
60488;SDS011;46331;49.252;8.904;2023-08-06T03:39:19;4.05;;;1.30;;
60488;SDS011;46331;49.252;8.904;2023-08-06T03:39:59;4.40;;;1.47;;
60488;SDS011;46331;49.252;8.904;2023-08-06T03:40:40;8.17;;;1.20;;
60488;SDS011;46331;49.252;8.904;2023-08-06T03:41:21;8.32;;;1.52;;
60488;SDS011;46331;49.252;8.904;2023-08-06T03:42:01;3.87;;;1.03;;
60488;SDS011;46331;49.252;8.904;2023-08-06T03:42:42;4.20;;;1.00;;
60488;SDS011;46331;49.252;8.904;2023-08-06T03:43:22;5.47;;;1.17;;
60488;SDS011;46331;49.252;8.904;2023-08-06T03:44:03;3.67;;;0.90;;
60488;SDS011;46331;49.252;8.904;2023-08-06T03:44:44;5.63;;;1.40;;
60488;SDS011;46331;49.252;8.904;2023-08-06T03:45:25;10.73;;;1.60;;
60488;SDS011;46331;49.252;8.904;2023-08-06T03:46:05;5.50;;;1.20;;
60488;SDS011;46331;49.252;8.904;2023-08-06T03:46:46;4.97;;;1.20;;
60488;SDS011;46331;49.252;8.904;2023-08-06T03:47:26;5.27;;;1.30;;
60488;SDS011;46331;49.252;8.904;2023-08-06T03:48:08;3.50;;;0.93;;
60488;SDS011;46331;49.252;8.904;2023-08-06T03:48:48;5.28;;;1.40;;
60488;SDS011;46331;49.252;8.904;2023-08-06T03:49:29;4.93;;;1.30;;
60488;SDS011;46331;49.252;8.904;2023-08-06T03:50:09;4.38;;;1.27;;
60488;SDS011;46331;49.252;8.904;2023-08-06T03:50:50;5.30;;;1.30;;
60488;SDS011;46331;49.252;8.904;2023-08-06T03:51:32;5.50;;;1.40;;
60488;SDS011;46331;49.252;8.904;2023-08-06T03:52:13;4.22;;;1.10;;
60488;SDS011;46331;49.252;8.904;2023-08-06T03:52:54;5.40;;;1.02;;
60488;SDS011;46331;49.252;8.904;2023-08-06T03:53:35;5.00;;;0.80;;
60488;SDS011;46331;49.252;8.904;2023-08-06T03:54:16;5.07;;;1.10;;
60488;SDS011;46331;49.252;8.904;2023-08-06T03:54:57;5.53;;;1.10;;
60488;SDS011;46331;49.252;8.904;2023-08-06T03:55:37;6.03;;;1.07;;
60488;SDS011;46331;49.252;8.904;2023-08-06T03:56:18;5.80;;;1.05;;
60488;SDS011;46331;49.252;8.904;2023-08-06T03:56:58;4.90;;;1.00;;
60488;SDS011;46331;49.252;8.904;2023-08-06T03:57:39;6.87;;;1.00;;
60488;SDS011;46331;49.252;8.904;2023-08-06T03:58:19;4.83;;;1.30;;
60488;SDS011;46331;49.252;8.904;2023-08-06T03:59:00;6.53;;;1.00;;
60488;SDS011;46331;49.252;8.904;2023-08-06T03:59:40;4.63;;;1.20;;
60488;SDS011;46331;49.252;8.904;2023-08-06T04:00:21;7.97;;;1.40;;
60488;SDS011;46331;49.252;8.904;2023-08-06T04:01:06;4.95;;;1.27;;
60488;SDS011;46331;49.252;8.904;2023-08-06T04:01:52;3.95;;;0.95;;
60488;SDS011;46331;49.252;8.904;2023-08-06T04:02:32;4.57;;;1.13;;
60488;SDS011;46331;49.252;8.904;2023-08-06T04:03:14;7.25;;;1.00;;
60488;SDS011;46331;49.252;8.904;2023-08-06T04:03:56;5.20;;;1.10;;
60488;SDS011;46331;49.252;8.904;2023-08-06T04:04:36;6.25;;;1.30;;
60488;SDS011;46331;49.252;8.904;2023-08-06T04:05:17;4.30;;;0.98;;
60488;SDS011;46331;49.252;8.904;2023-08-06T04:05:58;5.37;;;1.30;;
60488;SDS011;46331;49.252;8.904;2023-08-06T04:06:38;5.72;;;1.20;;
60488;SDS011;46331;49.252;8.904;2023-08-06T04:07:19;5.73;;;1.73;;
60488;SDS011;46331;49.252;8.904;2023-08-06T04:07:59;5.00;;;1.00;;
60488;SDS011;46331;49.252;8.904;2023-08-06T04:08:40;4.97;;;1.20;;
60488;SDS011;46331;49.252;8.904;2023-08-06T04:09:21;4.03;;;1.00;;
60488;SDS011;46331;49.252;8.904;2023-08-06T04:10:03;4.63;;;1.30;;
60488;SDS011;46331;49.252;8.904;2023-08-06T04:10:49;4.38;;;1.27;;
60488;SDS011;46331;49.252;8.904;2023-08-06T04:11:31;3.92;;;0.90;;
60488;SDS011;46331;49.252;8.904;2023-08-06T04:12:11;5.20;;;1.00;;
60488;SDS011;46331;49.252;8.904;2023-08-06T04:12:52;4.72;;;0.88;;
60488;SDS011;46331;49.252;8.904;2023-08-06T04:13:32;4.63;;;1.57;;
60488;SDS011;46331;49.252;8.904;2023-08-06T04:14:13;5.53;;;1.42;;
60488;SDS011;46331;49.252;8.904;2023-08-06T04:14:53;4.33;;;1.40;;
60488;SDS011;46331;49.252;8.904;2023-08-06T04:15:34;5.63;;;1.17;;
60488;SDS011;46331;49.252;8.904;2023-08-06T04:16:15;4.72;;;0.90;;
60488;SDS011;46331;49.252;8.904;2023-08-06T04:16:55;3.43;;;1.10;;